sensor_id;sensor_type;location;lat;lon;timestamp;P1;durP1;ratioP1;P2;durP2;ratioP2
12591;SDS011;6361;52.120;5.108;2022-12-29T00:01:36;5.38;;;3.90;;
12591;SDS011;6361;52.120;5.108;2022-12-29T00:04:03;5.50;;;3.47;;
12591;SDS011;6361;52.120;5.108;2022-12-29T00:06:29;3.50;;;3.00;;
12591;SDS011;6361;52.120;5.108;2022-12-29T00:08:55;5.07;;;3.10;;
12591;SDS011;6361;52.120;5.108;2022-12-29T00:11:21;3.60;;;3.03;;
12591;SDS011;6361;52.120;5.108;2022-12-29T00:13:48;2.88;;;2.42;;
12591;SDS011;6361;52.120;5.108;2022-12-29T00:16:33;3.30;;;2.55;;
12591;SDS011;6361;52.120;5.108;2022-12-29T00:18:59;4.30;;;2.60;;
12591;SDS011;6361;52.120;5.108;2022-12-29T00:21:25;3.65;;;2.55;;
12591;SDS011;6361;52.120;5.108;2022-12-29T00:24:13;3.03;;;2.38;;
12591;SDS011;6361;52.120;5.108;2022-12-29T00:27:09;2.90;;;2.50;;
12591;SDS011;6361;52.120;5.108;2022-12-29T00:29:54;5.68;;;2.67;;
12591;SDS011;6361;52.120;5.108;2022-12-29T00:32:39;4.35;;;2.40;;
12591;SDS011;6361;52.120;5.108;2022-12-29T00:37:50;5.97;;;2.65;;
12591;SDS011;6361;52.120;5.108;2022-12-29T00:43:19;3.20;;;2.63;;
12591;SDS011;6361;52.120;5.108;2022-12-29T00:46:03;2.63;;;2.42;;
12591;SDS011;6361;52.120;5.108;2022-12-29T00:48:29;3.53;;;2.38;;
12591;SDS011;6361;52.120;5.108;2022-12-29T00:51:13;5.05;;;2.40;;
12591;SDS011;6361;52.120;5.108;2022-12-29T00:53:38;2.55;;;2.03;;
12591;SDS011;6361;52.120;5.108;2022-12-29T00:56:03;4.30;;;2.08;;
12591;SDS011;6361;52.120;5.108;2022-12-29T00:58:29;4.18;;;2.20;;
12591;SDS011;6361;52.120;5.108;2022-12-29T01:01:05;2.80;;;2.08;;
12591;SDS011;6361;52.120;5.108;2022-12-29T01:03:32;3.47;;;2.00;;
12591;SDS011;6361;52.120;5.108;2022-12-29T01:06:02;2.70;;;2.10;;
12591;SDS011;6361;52.120;5.108;2022-12-29T01:08:28;4.28;;;2.22;;
12591;SDS011;6361;52.120;5.108;2022-12-29T01:11:00;3.00;;;1.75;;
12591;SDS011;6361;52.120;5.108;2022-12-29T01:13:30;4.15;;;1.92;;
12591;SDS011;6361;52.120;5.108;2022-12-29T01:15:56;4.50;;;2.03;;
12591;SDS011;6361;52.120;5.108;2022-12-29T01:18:22;2.65;;;2.42;;
12591;SDS011;6361;52.120;5.108;2022-12-29T01:20:48;5.82;;;2.10;;
12591;SDS011;6361;52.120;5.108;2022-12-29T01:23:13;3.85;;;2.10;;
12591;SDS011;6361;52.120;5.108;2022-12-29T01:25:39;3.72;;;1.92;;
12591;SDS011;6361;52.120;5.108;2022-12-29T01:28:04;2.60;;;2.10;;
12591;SDS011;6361;52.120;5.108;2022-12-29T01:30:30;3.60;;;2.38;;
12591;SDS011;6361;52.120;5.108;2022-12-29T01:32:55;3.03;;;2.00;;
12591;SDS011;6361;52.120;5.108;2022-12-29T01:35:20;4.78;;;2.38;;
12591;SDS011;6361;52.120;5.108;2022-12-29T01:37:46;2.85;;;2.40;;
12591;SDS011;6361;52.120;5.108;2022-12-29T01:40:11;4.68;;;2.90;;
12591;SDS011;6361;52.120;5.108;2022-12-29T01:42:37;3.67;;;2.17;;
12591;SDS011;6361;52.120;5.108;2022-12-29T01:45:04;3.33;;;2.65;;
12591;SDS011;6361;52.120;5.108;2022-12-29T01:47:41;4.38;;;2.72;;
12591;SDS011;6361;52.120;5.108;2022-12-29T01:52:43;7.55;;;3.30;;
12591;SDS011;6361;52.120;5.108;2022-12-29T01:55:11;3.97;;;2.83;;
12591;SDS011;6361;52.120;5.108;2022-12-29T01:57:38;4.00;;;2.67;;
12591;SDS011;6361;52.120;5.108;2022-12-29T02:00:07;4.43;;;2.75;;
12591;SDS011;6361;52.120;5.108;2022-12-29T02:02:35;4.05;;;2.30;;
12591;SDS011;6361;52.120;5.108;2022-12-29T02:05:03;3.67;;;2.60;;
12591;SDS011;6361;52.120;5.108;2022-12-29T02:07:32;2.72;;;2.42;;
12591;SDS011;6361;52.120;5.108;2022-12-29T02:09:58;3.47;;;2.03;;
12591;SDS011;6361;52.120;5.108;2022-12-29T02:12:23;2.78;;;2.40;;
12591;SDS011;6361;52.120;5.108;2022-12-29T02:14:49;2.65;;;2.40;;
12591;SDS011;6361;52.120;5.108;2022-12-29T02:17:26;3.08;;;2.20;;
12591;SDS011;6361;52.120;5.108;2022-12-29T02:20:54;3.42;;;2.20;;
12591;SDS011;6361;52.120;5.108;2022-12-29T02:28:23;3.78;;;2.13;;
12591;SDS011;6361;52.120;5.108;2022-12-29T02:33:41;6.78;;;1.67;;
12591;SDS011;6361;52.120;5.108;2022-12-29T02:38:53;6.35;;;1.67;;
12591;SDS011;6361;52.120;5.108;2022-12-29T02:48:59;3.60;;;1.13;;
12591;SDS011;6361;52.120;5.108;2022-12-29T02:54:27;6.00;;;1.23;;
12591;SDS011;6361;52.120;5.108;2022-12-29T02:57:12;3.10;;;1.10;;
12591;SDS011;6361;52.120;5.108;2022-12-29T02:59:45;3.55;;;1.00;;
12591;SDS011;6361;52.120;5.108;2022-12-29T03:10:35;5.00;;;0.98;;
12591;SDS011;6361;52.120;5.108;2022-12-29T03:15:59;2.90;;;0.80;;
12591;SDS011;6361;52.120;5.108;2022-12-29T03:24:07;5.53;;;1.17;;
12591;SDS011;6361;52.120;5.108;2022-12-29T03:26:33;5.22;;;1.10;;
12591;SDS011;6361;52.120;5.108;2022-12-29T03:28:58;2.67;;;0.80;;
12591;SDS011;6361;52.120;5.108;2022-12-29T03:31:24;4.90;;;1.20;;
12591;SDS011;6361;52.120;5.108;2022-12-29T03:33:50;3.15;;;0.80;;
12591;SDS011;6361;52.120;5.108;2022-12-29T03:36:18;7.63;;;1.00;;
12591;SDS011;6361;52.120;5.108;2022-12-29T03:38:55;4.63;;;1.00;;
12591;SDS011;6361;52.120;5.108;2022-12-29T03:41:26;5.43;;;0.90;;
12591;SDS011;6361;52.120;5.108;2022-12-29T03:43:55;4.43;;;1.00;;
12591;SDS011;6361;52.120;5.108;2022-12-29T03:46:20;5.10;;;0.98;;
12591;SDS011;6361;52.120;5.108;2022-12-29T03:48:45;3.58;;;0.90;;
12591;SDS011;6361;52.120;5.108;2022-12-29T03:51:11;5.25;;;0.90;;
12591;SDS011;6361;52.120;5.108;2022-12-29T03:53:36;2.45;;;0.90;;
12591;SDS011;6361;52.120;5.108;2022-12-29T03:56:02;3.50;;;0.90;;
12591;SDS011;6361;52.120;5.108;2022-12-29T03:58:27;4.35;;;1.00;;
12591;SDS011;6361;52.120;5.108;2022-12-29T04:00:52;6.00;;;0.90;;
12591;SDS011;6361;52.120;5.108;2022-12-29T04:03:18;3.67;;;1.20;;
12591;SDS011;6361;52.120;5.108;2022-12-29T04:05:43;7.15;;;1.42;;
12591;SDS011;6361;52.120;5.108;2022-12-29T04:08:08;2.47;;;0.90;;
12591;SDS011;6361;52.120;5.108;2022-12-29T04:10:34;6.07;;;1.48;;
12591;SDS011;6361;52.120;5.108;2022-12-29T04:12:59;5.68;;;1.50;;
12591;SDS011;6361;52.120;5.108;2022-12-29T04:15:25;5.63;;;1.63;;
12591;SDS011;6361;52.120;5.108;2022-12-29T04:17:51;5.32;;;1.52;;
12591;SDS011;6361;52.120;5.108;2022-12-29T04:20:16;5.90;;;1.60;;
12591;SDS011;6361;52.120;5.108;2022-12-29T04:23:01;5.63;;;1.58;;
12591;SDS011;6361;52.120;5.108;2022-12-29T04:25:30;7.80;;;1.67;;
12591;SDS011;6361;52.120;5.108;2022-12-29T04:27:56;7.15;;;1.70;;
12591;SDS011;6361;52.120;5.108;2022-12-29T04:30:21;4.57;;;1.40;;
12591;SDS011;6361;52.120;5.108;2022-12-29T04:32:47;7.03;;;2.25;;
12591;SDS011;6361;52.120;5.108;2022-12-29T04:35:12;6.82;;;1.20;;
12591;SDS011;6361;52.120;5.108;2022-12-29T04:37:37;9.07;;;1.67;;
12591;SDS011;6361;52.120;5.108;2022-12-29T04:40:03;7.53;;;1.45;;
12591;SDS011;6361;52.120;5.108;2022-12-29T04:42:29;10.18;;;1.67;;
12591;SDS011;6361;52.120;5.108;2022-12-29T04:44:54;8.48;;;1.13;;
12591;SDS011;6361;52.120;5.108;2022-12-29T04:47:19;9.77;;;1.67;;
12591;SDS011;6361;52.120;5.108;2022-12-29T04:49:45;11.13;;;1.27;;
12591;SDS011;6361;52.120;5.108;2022-12-29T04:52:10;5.20;;;1.33;;
12591;SDS011;6361;52.120;5.108;2022-12-29T04:54:35;8.82;;;2.30;;
12591;SDS011;6361;52.120;5.108;2022-12-29T04:57:01;7.45;;;1.52;;
12591;SDS011;6361;52.120;5.108;2022-12-29T04:59:26;7.72;;;1.85;;
12591;SDS011;6361;52.120;5.108;2022-12-29T05:01:51;8.50;;;1.70;;
12591;SDS011;6361;52.120;5.108;2022-12-29T05:04:17;9.10;;;1.40;;
12591;SDS011;6361;52.120;5.108;2022-12-29T05:06:42;7.93;;;1.30;;
12591;SDS011;6361;52.120;5.108;2022-12-29T05:09:07;8.90;;;1.63;;
12591;SDS011;6361;52.120;5.108;2022-12-29T05:11:33;7.88;;;2.05;;
12591;SDS011;6361;52.120;5.108;2022-12-29T05:13:58;9.52;;;2.05;;
12591;SDS011;6361;52.120;5.108;2022-12-29T05:16:24;7.95;;;1.65;;
12591;SDS011;6361;52.120;5.108;2022-12-29T05:18:49;10.43;;;1.98;;
12591;SDS011;6361;52.120;5.108;2022-12-29T05:21:14;13.43;;;1.50;;
12591;SDS011;6361;52.120;5.108;2022-12-29T05:23:40;9.73;;;1.85;;
12591;SDS011;6361;52.120;5.108;2022-12-29T05:26:05;9.63;;;1.80;;
12591;SDS011;6361;52.120;5.108;2022-12-29T05:28:30;12.50;;;1.58;;
12591;SDS011;6361;52.120;5.108;2022-12-29T05:30:56;13.68;;;2.03;;
12591;SDS011;6361;52.120;5.108;2022-12-29T05:33:21;15.90;;;2.00;;
12591;SDS011;6361;52.120;5.108;2022-12-29T05:35:46;12.57;;;1.80;;
12591;SDS011;6361;52.120;5.108;2022-12-29T05:38:12;13.43;;;2.33;;
12591;SDS011;6361;52.120;5.108;2022-12-29T05:40:37;12.15;;;1.73;;
12591;SDS011;6361;52.120;5.108;2022-12-29T05:43:03;16.02;;;1.90;;
12591;SDS011;6361;52.120;5.108;2022-12-29T05:45:28;11.32;;;1.55;;
12591;SDS011;6361;52.120;5.108;2022-12-29T05:47:54;11.75;;;1.60;;
12591;SDS011;6361;52.120;5.108;2022-12-29T05:50:19;12.50;;;1.83;;
12591;SDS011;6361;52.120;5.108;2022-12-29T05:52:44;8.20;;;1.83;;
12591;SDS011;6361;52.120;5.108;2022-12-29T05:55:10;12.93;;;1.98;;
12591;SDS011;6361;52.120;5.108;2022-12-29T05:57:36;14.23;;;2.20;;
12591;SDS011;6361;52.120;5.108;2022-12-29T06:00:03;15.05;;;2.30;;
12591;SDS011;6361;52.120;5.108;2022-12-29T06:02:29;12.57;;;2.08;;
12591;SDS011;6361;52.120;5.108;2022-12-29T06:04:54;9.50;;;1.83;;
12591;SDS011;6361;52.120;5.108;2022-12-29T06:07:19;12.75;;;2.10;;
12591;SDS011;6361;52.120;5.108;2022-12-29T06:09:45;13.25;;;1.92;;
12591;SDS011;6361;52.120;5.108;2022-12-29T06:12:10;13.15;;;2.13;;
12591;SDS011;6361;52.120;5.108;2022-12-29T06:14:36;16.08;;;1.85;;
12591;SDS011;6361;52.120;5.108;2022-12-29T06:17:01;10.20;;;1.60;;
12591;SDS011;6361;52.120;5.108;2022-12-29T06:19:26;15.13;;;2.28;;
12591;SDS011;6361;52.120;5.108;2022-12-29T06:21:52;14.82;;;1.92;;
12591;SDS011;6361;52.120;5.108;2022-12-29T06:24:18;12.15;;;1.75;;
12591;SDS011;6361;52.120;5.108;2022-12-29T06:26:43;12.20;;;1.77;;
12591;SDS011;6361;52.120;5.108;2022-12-29T06:29:09;14.93;;;2.38;;
12591;SDS011;6361;52.120;5.108;2022-12-29T06:31:34;13.48;;;2.00;;
12591;SDS011;6361;52.120;5.108;2022-12-29T06:33:59;11.73;;;1.67;;
12591;SDS011;6361;52.120;5.108;2022-12-29T06:36:25;11.63;;;1.90;;
12591;SDS011;6361;52.120;5.108;2022-12-29T06:38:50;14.05;;;1.90;;
12591;SDS011;6361;52.120;5.108;2022-12-29T06:41:17;13.85;;;1.73;;
12591;SDS011;6361;52.120;5.108;2022-12-29T06:43:43;16.65;;;2.13;;
12591;SDS011;6361;52.120;5.108;2022-12-29T06:46:09;17.33;;;2.20;;
12591;SDS011;6361;52.120;5.108;2022-12-29T06:48:34;14.07;;;1.98;;
12591;SDS011;6361;52.120;5.108;2022-12-29T06:51:00;13.32;;;2.17;;
12591;SDS011;6361;52.120;5.108;2022-12-29T06:53:25;14.85;;;1.60;;
12591;SDS011;6361;52.120;5.108;2022-12-29T06:55:50;17.02;;;2.33;;
12591;SDS011;6361;52.120;5.108;2022-12-29T06:58:16;11.65;;;2.05;;
12591;SDS011;6361;52.120;5.108;2022-12-29T07:00:41;13.82;;;1.58;;
12591;SDS011;6361;52.120;5.108;2022-12-29T07:03:06;14.02;;;2.30;;
12591;SDS011;6361;52.120;5.108;2022-12-29T07:05:32;13.02;;;2.25;;
12591;SDS011;6361;52.120;5.108;2022-12-29T07:07:57;14.95;;;2.10;;
12591;SDS011;6361;52.120;5.108;2022-12-29T07:10:23;11.55;;;2.00;;
12591;SDS011;6361;52.120;5.108;2022-12-29T07:12:48;13.65;;;1.80;;
12591;SDS011;6361;52.120;5.108;2022-12-29T07:15:14;13.32;;;2.42;;
12591;SDS011;6361;52.120;5.108;2022-12-29T07:17:39;12.07;;;2.13;;
12591;SDS011;6361;52.120;5.108;2022-12-29T07:20:05;14.15;;;2.05;;
12591;SDS011;6361;52.120;5.108;2022-12-29T07:22:32;8.23;;;1.75;;
12591;SDS011;6361;52.120;5.108;2022-12-29T07:24:57;12.70;;;1.98;;
12591;SDS011;6361;52.120;5.108;2022-12-29T07:27:22;9.63;;;1.70;;
12591;SDS011;6361;52.120;5.108;2022-12-29T07:29:48;8.75;;;1.52;;
12591;SDS011;6361;52.120;5.108;2022-12-29T07:32:13;15.43;;;2.03;;
12591;SDS011;6361;52.120;5.108;2022-12-29T07:34:38;10.65;;;2.00;;
12591;SDS011;6361;52.120;5.108;2022-12-29T07:37:04;13.63;;;2.38;;
12591;SDS011;6361;52.120;5.108;2022-12-29T07:39:30;8.43;;;2.03;;
12591;SDS011;6361;52.120;5.108;2022-12-29T07:41:55;16.10;;;2.40;;
12591;SDS011;6361;52.120;5.108;2022-12-29T07:44:21;13.48;;;1.98;;
12591;SDS011;6361;52.120;5.108;2022-12-29T07:46:46;9.38;;;2.10;;
12591;SDS011;6361;52.120;5.108;2022-12-29T07:49:12;9.02;;;1.67;;
12591;SDS011;6361;52.120;5.108;2022-12-29T07:51:37;11.57;;;2.13;;
12591;SDS011;6361;52.120;5.108;2022-12-29T07:54:02;13.48;;;2.22;;
12591;SDS011;6361;52.120;5.108;2022-12-29T07:56:28;12.95;;;2.17;;
12591;SDS011;6361;52.120;5.108;2022-12-29T07:58:53;13.82;;;2.45;;
12591;SDS011;6361;52.120;5.108;2022-12-29T08:01:19;16.20;;;2.35;;
12591;SDS011;6361;52.120;5.108;2022-12-29T08:03:44;6.55;;;1.58;;
12591;SDS011;6361;52.120;5.108;2022-12-29T08:06:10;14.07;;;2.25;;
12591;SDS011;6361;52.120;5.108;2022-12-29T08:08:35;11.98;;;2.15;;
12591;SDS011;6361;52.120;5.108;2022-12-29T08:11:01;15.18;;;2.15;;
12591;SDS011;6361;52.120;5.108;2022-12-29T08:13:26;20.85;;;2.22;;
12591;SDS011;6361;52.120;5.108;2022-12-29T08:15:51;13.40;;;2.33;;
12591;SDS011;6361;52.120;5.108;2022-12-29T08:18:17;12.23;;;2.33;;
12591;SDS011;6361;52.120;5.108;2022-12-29T08:20:42;15.13;;;2.08;;
12591;SDS011;6361;52.120;5.108;2022-12-29T08:23:07;12.85;;;2.38;;
12591;SDS011;6361;52.120;5.108;2022-12-29T08:25:33;17.88;;;2.60;;
12591;SDS011;6361;52.120;5.108;2022-12-29T08:27:58;18.05;;;2.72;;
12591;SDS011;6361;52.120;5.108;2022-12-29T08:30:24;10.27;;;2.05;;
12591;SDS011;6361;52.120;5.108;2022-12-29T08:32:49;11.70;;;2.58;;
12591;SDS011;6361;52.120;5.108;2022-12-29T08:35:14;18.67;;;2.40;;
12591;SDS011;6361;52.120;5.108;2022-12-29T08:37:40;10.10;;;2.10;;
12591;SDS011;6361;52.120;5.108;2022-12-29T08:40:05;9.07;;;2.20;;
12591;SDS011;6361;52.120;5.108;2022-12-29T08:42:31;16.10;;;2.25;;
12591;SDS011;6361;52.120;5.108;2022-12-29T08:44:57;18.30;;;2.78;;
12591;SDS011;6361;52.120;5.108;2022-12-29T08:47:26;14.68;;;2.08;;
12591;SDS011;6361;52.120;5.108;2022-12-29T08:49:51;15.45;;;2.50;;
12591;SDS011;6361;52.120;5.108;2022-12-29T08:52:17;18.05;;;2.20;;
12591;SDS011;6361;52.120;5.108;2022-12-29T08:54:42;17.10;;;2.42;;
12591;SDS011;6361;52.120;5.108;2022-12-29T08:57:08;17.30;;;2.35;;
12591;SDS011;6361;52.120;5.108;2022-12-29T08:59:33;12.20;;;2.22;;
12591;SDS011;6361;52.120;5.108;2022-12-29T09:01:58;15.43;;;2.30;;
12591;SDS011;6361;52.120;5.108;2022-12-29T09:04:25;13.10;;;2.03;;
12591;SDS011;6361;52.120;5.108;2022-12-29T09:06:52;13.38;;;2.10;;
12591;SDS011;6361;52.120;5.108;2022-12-29T09:09:17;12.52;;;2.30;;
12591;SDS011;6361;52.120;5.108;2022-12-29T09:11:43;16.38;;;2.78;;
12591;SDS011;6361;52.120;5.108;2022-12-29T09:14:09;17.10;;;2.55;;
12591;SDS011;6361;52.120;5.108;2022-12-29T09:16:34;16.02;;;3.00;;
12591;SDS011;6361;52.120;5.108;2022-12-29T09:19:00;13.05;;;2.40;;
12591;SDS011;6361;52.120;5.108;2022-12-29T09:21:26;14.18;;;2.50;;
12591;SDS011;6361;52.120;5.108;2022-12-29T09:23:51;15.55;;;2.40;;
12591;SDS011;6361;52.120;5.108;2022-12-29T09:26:17;14.90;;;2.22;;
12591;SDS011;6361;52.120;5.108;2022-12-29T09:28:42;15.15;;;2.45;;
12591;SDS011;6361;52.120;5.108;2022-12-29T09:31:09;13.75;;;2.17;;
12591;SDS011;6361;52.120;5.108;2022-12-29T09:33:34;13.45;;;2.60;;
12591;SDS011;6361;52.120;5.108;2022-12-29T09:36:01;11.07;;;2.00;;
12591;SDS011;6361;52.120;5.108;2022-12-29T09:38:27;14.18;;;2.60;;
12591;SDS011;6361;52.120;5.108;2022-12-29T09:40:55;13.10;;;2.20;;
12591;SDS011;6361;52.120;5.108;2022-12-29T09:46:44;11.95;;;2.42;;
12591;SDS011;6361;52.120;5.108;2022-12-29T09:48:55;14.85;;;2.30;;
12591;SDS011;6361;52.120;5.108;2022-12-29T09:51:32;16.30;;;2.10;;
12591;SDS011;6361;52.120;5.108;2022-12-29T09:54:03;13.55;;;2.53;;
12591;SDS011;6361;52.120;5.108;2022-12-29T09:56:40;15.00;;;2.00;;
12591;SDS011;6361;52.120;5.108;2022-12-29T09:59:08;13.70;;;2.08;;
12591;SDS011;6361;52.120;5.108;2022-12-29T10:01:42;11.25;;;2.20;;
12591;SDS011;6361;52.120;5.108;2022-12-29T10:04:13;12.70;;;2.00;;
12591;SDS011;6361;52.120;5.108;2022-12-29T10:09:15;14.05;;;1.80;;
12591;SDS011;6361;52.120;5.108;2022-12-29T10:25:22;12.30;;;1.83;;
12591;SDS011;6361;52.120;5.108;2022-12-29T10:27:50;8.30;;;1.95;;
12591;SDS011;6361;52.120;5.108;2022-12-29T10:30:16;13.75;;;1.92;;
12591;SDS011;6361;52.120;5.108;2022-12-29T10:32:55;11.43;;;2.28;;
12591;SDS011;6361;52.120;5.108;2022-12-29T10:35:25;18.13;;;2.55;;
12591;SDS011;6361;52.120;5.108;2022-12-29T10:40:29;15.00;;;2.63;;
12591;SDS011;6361;52.120;5.108;2022-12-29T10:42:58;20.17;;;3.17;;
12591;SDS011;6361;52.120;5.108;2022-12-29T10:45:27;15.15;;;3.42;;
12591;SDS011;6361;52.120;5.108;2022-12-29T10:48:02;27.15;;;4.10;;
12591;SDS011;6361;52.120;5.108;2022-12-29T10:50:30;25.08;;;4.05;;
12591;SDS011;6361;52.120;5.108;2022-12-29T10:52:57;27.95;;;4.65;;
12591;SDS011;6361;52.120;5.108;2022-12-29T10:55:26;20.55;;;3.92;;
12591;SDS011;6361;52.120;5.108;2022-12-29T10:57:54;18.45;;;3.88;;
12591;SDS011;6361;52.120;5.108;2022-12-29T11:00:21;25.20;;;4.10;;
12591;SDS011;6361;52.120;5.108;2022-12-29T11:05:39;19.40;;;4.63;;
12591;SDS011;6361;52.120;5.108;2022-12-29T11:08:18;23.05;;;4.05;;
12591;SDS011;6361;52.120;5.108;2022-12-29T11:10:46;22.65;;;3.70;;
12591;SDS011;6361;52.120;5.108;2022-12-29T11:13:18;25.35;;;4.13;;
12591;SDS011;6361;52.120;5.108;2022-12-29T11:15:49;26.63;;;3.95;;
12591;SDS011;6361;52.120;5.108;2022-12-29T11:20:47;26.50;;;3.72;;
12591;SDS011;6361;52.120;5.108;2022-12-29T11:26:33;22.35;;;3.58;;
12591;SDS011;6361;52.120;5.108;2022-12-29T11:31:39;28.75;;;4.18;;
12591;SDS011;6361;52.120;5.108;2022-12-29T11:34:06;26.50;;;4.47;;
12591;SDS011;6361;52.120;5.108;2022-12-29T11:36:32;22.63;;;4.88;;
12591;SDS011;6361;52.120;5.108;2022-12-29T11:38:58;18.42;;;3.80;;
12591;SDS011;6361;52.120;5.108;2022-12-29T11:41:25;25.88;;;4.07;;
12591;SDS011;6361;52.120;5.108;2022-12-29T11:43:53;33.97;;;4.55;;
12591;SDS011;6361;52.120;5.108;2022-12-29T11:46:24;27.98;;;4.38;;
12591;SDS011;6361;52.120;5.108;2022-12-29T11:48:53;23.90;;;4.30;;
12591;SDS011;6361;52.120;5.108;2022-12-29T11:51:28;28.77;;;4.43;;
12591;SDS011;6361;52.120;5.108;2022-12-29T11:54:04;24.02;;;3.75;;
12591;SDS011;6361;52.120;5.108;2022-12-29T11:56:32;25.35;;;4.03;;
12591;SDS011;6361;52.120;5.108;2022-12-29T11:59:20;26.67;;;4.25;;
12591;SDS011;6361;52.120;5.108;2022-12-29T12:01:59;28.45;;;4.07;;
12591;SDS011;6361;52.120;5.108;2022-12-29T12:04:28;27.58;;;4.25;;
12591;SDS011;6361;52.120;5.108;2022-12-29T12:09:35;27.50;;;3.50;;
12591;SDS011;6361;52.120;5.108;2022-12-29T12:12:03;24.90;;;4.00;;
12591;SDS011;6361;52.120;5.108;2022-12-29T12:14:37;27.65;;;3.95;;
12591;SDS011;6361;52.120;5.108;2022-12-29T12:17:12;24.13;;;3.97;;
12591;SDS011;6361;52.120;5.108;2022-12-29T12:22:28;24.17;;;3.40;;
12591;SDS011;6361;52.120;5.108;2022-12-29T12:25:02;16.48;;;3.50;;
12591;SDS011;6361;52.120;5.108;2022-12-29T12:27:39;28.58;;;3.75;;
12591;SDS011;6361;52.120;5.108;2022-12-29T12:30:28;23.30;;;3.47;;
12591;SDS011;6361;52.120;5.108;2022-12-29T12:41:12;25.88;;;3.88;;
12591;SDS011;6361;52.120;5.108;2022-12-29T12:43:39;27.45;;;3.95;;
12591;SDS011;6361;52.120;5.108;2022-12-29T12:46:17;22.30;;;3.95;;
12591;SDS011;6361;52.120;5.108;2022-12-29T12:51:20;20.95;;;3.38;;
12591;SDS011;6361;52.120;5.108;2022-12-29T13:07:29;15.32;;;2.17;;
12591;SDS011;6361;52.120;5.108;2022-12-29T13:18:21;14.35;;;3.10;;
12591;SDS011;6361;52.120;5.108;2022-12-29T13:21:09;17.37;;;2.70;;
12591;SDS011;6361;52.120;5.108;2022-12-29T13:26:48;19.08;;;2.78;;
12591;SDS011;6361;52.120;5.108;2022-12-29T13:37:26;13.32;;;2.72;;
12591;SDS011;6361;52.120;5.108;2022-12-29T13:39:57;17.58;;;2.90;;
12591;SDS011;6361;52.120;5.108;2022-12-29T13:42:24;21.02;;;3.25;;
12591;SDS011;6361;52.120;5.108;2022-12-29T13:49:53;21.17;;;3.67;;
12591;SDS011;6361;52.120;5.108;2022-12-29T14:00:47;23.67;;;3.67;;
12591;SDS011;6361;52.120;5.108;2022-12-29T14:03:27;8.57;;;2.67;;
12591;SDS011;6361;52.120;5.108;2022-12-29T14:06:22;10.52;;;2.22;;
12591;SDS011;6361;52.120;5.108;2022-12-29T14:08:56;10.93;;;2.15;;
12591;SDS011;6361;52.120;5.108;2022-12-29T14:11:23;11.50;;;2.55;;
12591;SDS011;6361;52.120;5.108;2022-12-29T14:13:55;7.43;;;1.88;;
12591;SDS011;6361;52.120;5.108;2022-12-29T14:16:24;6.15;;;1.58;;
12591;SDS011;6361;52.120;5.108;2022-12-29T14:18:51;10.20;;;1.80;;
12591;SDS011;6361;52.120;5.108;2022-12-29T14:21:20;9.32;;;1.95;;
12591;SDS011;6361;52.120;5.108;2022-12-29T14:23:53;10.85;;;1.67;;
12591;SDS011;6361;52.120;5.108;2022-12-29T14:28:53;11.68;;;2.05;;
12591;SDS011;6361;52.120;5.108;2022-12-29T14:34:15;10.60;;;2.00;;
12591;SDS011;6361;52.120;5.108;2022-12-29T14:44:34;7.80;;;2.17;;
12591;SDS011;6361;52.120;5.108;2022-12-29T14:47:11;10.85;;;2.10;;
12591;SDS011;6361;52.120;5.108;2022-12-29T14:49:42;12.10;;;2.50;;
12591;SDS011;6361;52.120;5.108;2022-12-29T14:52:21;11.50;;;2.80;;
12591;SDS011;6361;52.120;5.108;2022-12-29T14:54:50;9.02;;;2.75;;
12591;SDS011;6361;52.120;5.108;2022-12-29T14:57:25;14.05;;;2.75;;
12591;SDS011;6361;52.120;5.108;2022-12-29T14:59:54;13.40;;;2.67;;
12591;SDS011;6361;52.120;5.108;2022-12-29T15:02:23;9.00;;;2.63;;
12591;SDS011;6361;52.120;5.108;2022-12-29T15:04:50;13.50;;;2.78;;
12591;SDS011;6361;52.120;5.108;2022-12-29T15:07:16;13.77;;;3.00;;
12591;SDS011;6361;52.120;5.108;2022-12-29T15:09:47;13.38;;;2.45;;
12591;SDS011;6361;52.120;5.108;2022-12-29T15:15:38;13.77;;;2.28;;
12591;SDS011;6361;52.120;5.108;2022-12-29T15:18:14;15.75;;;2.50;;
12591;SDS011;6361;52.120;5.108;2022-12-29T15:20:44;11.13;;;2.13;;
12591;SDS011;6361;52.120;5.108;2022-12-29T15:23:10;15.25;;;2.80;;
12591;SDS011;6361;52.120;5.108;2022-12-29T15:25:44;14.35;;;2.45;;
12591;SDS011;6361;52.120;5.108;2022-12-29T15:28:12;21.20;;;2.95;;
12591;SDS011;6361;52.120;5.108;2022-12-29T15:30:49;11.60;;;2.50;;
12591;SDS011;6361;52.120;5.108;2022-12-29T15:33:18;12.80;;;2.90;;
12591;SDS011;6361;52.120;5.108;2022-12-29T15:35:49;11.27;;;3.28;;
12591;SDS011;6361;52.120;5.108;2022-12-29T15:38:16;10.65;;;2.72;;
12591;SDS011;6361;52.120;5.108;2022-12-29T15:40:49;18.05;;;3.25;;
12591;SDS011;6361;52.120;5.108;2022-12-29T15:46:02;13.57;;;2.77;;
12591;SDS011;6361;52.120;5.108;2022-12-29T15:48:28;11.63;;;2.47;;
12591;SDS011;6361;52.120;5.108;2022-12-29T15:50:53;15.50;;;2.75;;
12591;SDS011;6361;52.120;5.108;2022-12-29T15:56:01;14.23;;;2.92;;
12591;SDS011;6361;52.120;5.108;2022-12-29T15:58:31;17.08;;;3.03;;
12591;SDS011;6361;52.120;5.108;2022-12-29T16:01:05;18.83;;;3.20;;
12591;SDS011;6361;52.120;5.108;2022-12-29T16:03:42;11.18;;;2.50;;
12591;SDS011;6361;52.120;5.108;2022-12-29T16:06:09;13.00;;;2.03;;
12591;SDS011;6361;52.120;5.108;2022-12-29T16:08:54;16.73;;;2.72;;
12591;SDS011;6361;52.120;5.108;2022-12-29T16:13:47;13.38;;;2.80;;
12591;SDS011;6361;52.120;5.108;2022-12-29T16:16:18;12.27;;;3.58;;
12591;SDS011;6361;52.120;5.108;2022-12-29T16:18:45;12.20;;;2.88;;
12591;SDS011;6361;52.120;5.108;2022-12-29T16:21:20;10.70;;;2.60;;
12591;SDS011;6361;52.120;5.108;2022-12-29T16:23:50;15.20;;;2.75;;
12591;SDS011;6361;52.120;5.108;2022-12-29T16:26:17;8.45;;;2.08;;
12591;SDS011;6361;52.120;5.108;2022-12-29T16:28:43;12.65;;;2.65;;
12591;SDS011;6361;52.120;5.108;2022-12-29T16:31:22;13.20;;;2.58;;
12591;SDS011;6361;52.120;5.108;2022-12-29T16:33:58;12.57;;;2.35;;
12591;SDS011;6361;52.120;5.108;2022-12-29T16:36:52;18.58;;;2.33;;
12591;SDS011;6361;52.120;5.108;2022-12-29T16:41:51;11.30;;;2.42;;
12591;SDS011;6361;52.120;5.108;2022-12-29T16:49:26;8.00;;;2.03;;
12591;SDS011;6361;52.120;5.108;2022-12-29T16:51:53;9.35;;;1.75;;
12591;SDS011;6361;52.120;5.108;2022-12-29T16:54:21;7.82;;;1.80;;
12591;SDS011;6361;52.120;5.108;2022-12-29T16:56:58;8.93;;;2.08;;
12591;SDS011;6361;52.120;5.108;2022-12-29T17:01:59;10.35;;;3.30;;
12591;SDS011;6361;52.120;5.108;2022-12-29T17:04:26;16.02;;;2.75;;
12591;SDS011;6361;52.120;5.108;2022-12-29T17:06:51;11.32;;;2.13;;
12591;SDS011;6361;52.120;5.108;2022-12-29T17:09:26;8.07;;;2.22;;
12591;SDS011;6361;52.120;5.108;2022-12-29T17:11:57;9.13;;;2.58;;
12591;SDS011;6361;52.120;5.108;2022-12-29T17:19:38;11.30;;;3.22;;
12591;SDS011;6361;52.120;5.108;2022-12-29T17:22:21;15.63;;;2.95;;
12591;SDS011;6361;52.120;5.108;2022-12-29T17:24:49;12.48;;;2.53;;
12591;SDS011;6361;52.120;5.108;2022-12-29T17:27:20;12.05;;;2.25;;
12591;SDS011;6361;52.120;5.108;2022-12-29T17:29:46;9.65;;;2.53;;
12591;SDS011;6361;52.120;5.108;2022-12-29T17:32:12;12.52;;;2.85;;
12591;SDS011;6361;52.120;5.108;2022-12-29T17:34:39;17.00;;;2.72;;
12591;SDS011;6361;52.120;5.108;2022-12-29T17:39:49;15.48;;;2.83;;
12591;SDS011;6361;52.120;5.108;2022-12-29T17:42:15;11.23;;;2.30;;
12591;SDS011;6361;52.120;5.108;2022-12-29T17:44:41;14.65;;;3.35;;
12591;SDS011;6361;52.120;5.108;2022-12-29T17:47:07;18.90;;;2.85;;
12591;SDS011;6361;52.120;5.108;2022-12-29T17:49:35;12.55;;;2.35;;
12591;SDS011;6361;52.120;5.108;2022-12-29T17:52:00;13.95;;;2.30;;
12591;SDS011;6361;52.120;5.108;2022-12-29T17:54:25;12.23;;;2.17;;
12591;SDS011;6361;52.120;5.108;2022-12-29T17:56:51;12.13;;;2.40;;
12591;SDS011;6361;52.120;5.108;2022-12-29T17:59:18;11.05;;;2.60;;
12591;SDS011;6361;52.120;5.108;2022-12-29T18:01:44;10.93;;;2.25;;
12591;SDS011;6361;52.120;5.108;2022-12-29T18:04:18;11.98;;;2.50;;
12591;SDS011;6361;52.120;5.108;2022-12-29T18:06:44;13.82;;;2.42;;